Time;durP1;ratioP1;P1;durP2;ratioP2;P2;SDS_P1;SDS_P2;PMS_P1;PMS_P2;Temp;Humidity;BMP_temperature;BMP_pressure;BME280_temperature;BME280_humidity;BME280_pressure;Samples;Min_cycle;Max_cycle;Signal;HPM_P1;HPM_P2
2022/01/02 00:00:22;;;;;;;97.07;36.78;;;5.00;99.90;;;;;;4982970;28;20359;-89
2022/01/02 00:03:03;;;;;;;94.47;37.05;;;5.00;99.90;;;;;;4983441;28;20033;-89
2022/01/02 00:05:34;;;;;;;97.68;39.20;;;5.10;99.90;;;;;;4982017;28;20036;-89
2022/01/02 00:08:08;;;;;;;84.40;33.15;;;5.10;99.90;;;;;;4983027;28;20034;-89
2022/01/02 00:10:39;;;;;;;82.13;35.15;;;5.20;99.90;;;;;;4980962;28;20037;-88
2022/01/02 00:13:07;;;;;;;80.45;29.77;;;5.20;99.90;;;;;;4965051;28;20081;-89
2022/01/02 00:15:33;;;;;;;80.90;28.10;;;5.30;99.90;;;;;;4981315;28;20058;-89
2022/01/02 00:18:08;;;;;;;76.60;27.88;;;5.40;99.90;;;;;;4981221;28;20466;-89
2022/01/02 00:20:37;;;;;;;75.78;27.33;;;5.30;99.90;;;;;;4981710;28;20026;-89
2022/01/02 00:23:06;;;;;;;85.82;26.50;;;5.30;99.90;;;;;;4965255;28;20042;-89
2022/01/02 00:25:39;;;;;;;75.90;27.98;;;5.30;99.90;;;;;;4981553;28;20026;-89
2022/01/02 00:28:11;;;;;;;62.40;25.35;;;5.30;99.90;;;;;;4981185;28;20038;-89
2022/01/02 00:30:44;;;;;;;71.85;26.27;;;5.20;99.90;;;;;;4965461;28;20038;-89
2022/01/02 00:33:10;;;;;;;58.10;25.70;;;5.30;99.90;;;;;;4981280;28;20041;-89
2022/01/02 00:35:39;;;;;;;67.25;26.75;;;5.30;99.90;;;;;;4980592;28;20098;-89
2022/01/02 00:38:06;;;;;;;79.38;30.92;;;5.20;99.90;;;;;;4981320;28;20035;-88
2022/01/02 00:40:39;;;;;;;75.57;31.05;;;5.20;99.90;;;;;;4981741;28;20053;-89
2022/01/02 00:43:08;;;;;;;65.88;27.50;;;5.30;99.90;;;;;;4981435;28;20030;-88
2022/01/02 00:45:41;;;;;;;92.45;31.52;;;5.30;99.90;;;;;;4997220;28;20057;-89
2022/01/02 00:48:20;;;;;;;77.40;34.35;;;5.40;99.90;;;;;;4980998;28;20026;-88
2022/01/02 00:50:51;;;;;;;75.03;30.38;;;5.50;99.90;;;;;;4980687;28;20042;-89
2022/01/02 00:53:18;;;;;;;84.15;30.52;;;5.50;99.90;;;;;;4980742;28;20110;-88
2022/01/02 00:55:47;;;;;;;85.07;32.47;;;5.30;99.90;;;;;;4980974;28;20028;-88
2022/01/02 00:58:16;;;;;;;66.60;29.10;;;5.30;99.90;;;;;;4980639;28;20033;-88
2022/01/02 01:00:50;;;;;;;65.47;29.30;;;5.20;99.90;;;;;;4979324;28;20385;-84
2022/01/02 01:03:30;;;;;;;75.10;29.55;;;5.20;99.90;;;;;;4961903;28;20030;-85
2022/01/02 01:05:57;;;;;;;76.70;31.15;;;5.00;99.90;;;;;;4978956;28;20034;-86
2022/01/02 01:08:24;;;;;;;70.88;31.38;;;4.90;99.90;;;;;;4978963;28;20072;-85
2022/01/02 01:10:50;;;;;;;70.30;31.73;;;4.90;99.90;;;;;;4962991;28;20042;-86
2022/01/02 01:13:17;;;;;;;75.15;31.33;;;4.80;99.90;;;;;;4978723;28;20038;-85
2022/01/02 01:15:43;;;;;;;78.68;31.80;;;4.80;99.90;;;;;;4962698;28;20031;-85
2022/01/02 01:18:09;;;;;;;74.65;31.20;;;4.90;99.90;;;;;;4994946;28;20034;-85
2022/01/02 01:20:40;;;;;;;78.68;30.73;;;4.80;99.90;;;;;;4994254;28;20038;-85
2022/01/02 01:23:15;;;;;;;78.20;34.88;;;4.90;99.90;;;;;;4962367;28;20088;-86
2022/01/02 01:25:44;;;;;;;83.88;34.22;;;5.00;99.90;;;;;;4978529;28;20088;-85
2022/01/02 01:28:12;;;;;;;79.28;35.50;;;5.00;99.90;;;;;;4994636;28;20034;-86
2022/01/02 01:30:38;;;;;;;79.68;34.45;;;5.00;99.90;;;;;;4994184;28;20026;-85
2022/01/02 01:33:04;;;;;;;87.80;33.40;;;5.00;99.90;;;;;;4977712;28;20053;-86
2022/01/02 01:35:30;;;;;;;75.72;34.08;;;5.00;99.90;;;;;;4978121;28;20023;-85
2022/01/02 01:37:56;;;;;;;93.43;36.80;;;5.00;99.90;;;;;;4978263;28;20031;-85
2022/01/02 01:40:22;;;;;;;96.05;36.80;;;5.00;99.90;;;;;;4978570;28;20046;-85
2022/01/02 01:43:01;;;;;;;84.53;34.97;;;4.90;99.90;;;;;;4978497;28;20042;-85
2022/01/02 01:45:35;;;;;;;83.20;35.72;;;4.80;99.90;;;;;;4978254;28;20121;-85
2022/01/02 01:48:06;;;;;;;93.85;38.53;;;4.80;99.90;;;;;;4978444;28;20031;-85
2022/01/02 01:50:37;;;;;;;99.55;38.75;;;4.90;99.90;;;;;;4978110;28;20034;-86
2022/01/02 01:53:04;;;;;;;95.30;39.70;;;4.90;99.90;;;;;;4979579;28;20026;-89
2022/01/02 01:55:32;;;;;;;94.47;39.45;;;4.80;99.90;;;;;;4980085;28;20490;-88
2022/01/02 01:58:00;;;;;;;106.78;41.13;;;4.70;99.90;;;;;;4980100;28;20121;-89
2022/01/02 02:00:29;;;;;;;105.60;40.25;;;4.80;99.90;;;;;;4980169;28;20026;-89
2022/01/02 02:02:59;;;;;;;;;;;4.80;99.90;;;;;;4980071;28;20030;-88
2022/01/02 02:05:25;;;;;;;111.20;44.50;;;4.80;99.90;;;;;;4995570;28;20017;-88
2022/01/02 02:07:51;;;;;;;124.57;44.33;;;5.10;99.90;;;;;;4979499;28;20072;-88
2022/01/02 02:10:26;;;;;;;113.07;42.60;;;5.10;99.90;;;;;;4979398;28;20116;-88
2022/01/02 02:12:57;;;;;;;127.68;43.72;;;5.00;99.90;;;;;;4979267;28;20042;-88
2022/01/02 02:15:26;;;;;;;119.25;44.38;;;5.00;99.90;;;;;;4978945;28;20041;-88
2022/01/02 02:17:53;;;;;;;111.45;41.70;;;4.90;99.90;;;;;;4979085;28;20109;-88
2022/01/02 02:20:23;;;;;;;121.32;42.63;;;4.90;99.90;;;;;;4979214;28;20022;-89
2022/01/02 02:23:23;;;;;;;135.38;45.25;;;4.80;99.90;;;;;;4978692;28;20505;-88
2022/01/02 02:25:49;;;;;;;137.77;46.15;;;4.90;99.90;;;;;;4978667;28;20017;-88
2022/01/02 02:28:17;;;;;;;126.60;45.30;;;5.20;99.90;;;;;;4978545;28;20030;-88
2022/01/02 02:30:47;;;;;;;133.45;44.25;;;5.40;99.90;;;;;;4978903;28;20567;-89
2022/01/02 02:33:38;;;;;;;123.70;44.38;;;5.50;99.90;;;;;;4978513;28;20397;-88
2022/01/02 02:36:04;;;;;;;139.95;52.08;;;5.50;99.90;;;;;;4962890;28;20422;-88
2022/01/02 02:38:32;;;;;;;124.07;44.90;;;5.60;99.90;;;;;;4978222;28;20030;-89
2022/01/02 02:41:00;;;;;;;136.50;44.60;;;5.60;99.90;;;;;;4962770;28;20533;-88
2022/01/02 02:43:46;;;;;;;126.63;44.63;;;5.70;99.90;;;;;;4979146;28;20027;-88
2022/01/02 02:49:05;;;;;;;113.28;42.78;;;5.70;99.90;;;;;;4978772;28;20529;-89
2022/01/02 02:52:01;;;;;;;108.40;41.35;;;5.70;99.90;;;;;;4994122;28;20038;-89
2022/01/02 02:54:31;;;;;;;110.20;40.10;;;5.70;99.90;;;;;;4979447;28;20031;-89
2022/01/02 02:56:59;;;;;;;106.88;39.00;;;5.70;99.90;;;;;;4994889;28;20141;-90
2022/01/02 02:59:31;;;;;;;108.68;39.63;;;5.70;99.90;;;;;;4978374;28;20027;-88
2022/01/02 03:01:58;;;;;;;105.20;39.00;;;5.80;99.90;;;;;;4977772;28;20042;-89
2022/01/02 03:04:24;;;;;;;89.32;36.58;;;5.90;99.90;;;;;;4994242;28;20113;-88
2022/01/02 03:06:55;;;;;;;87.28;36.22;;;6.00;99.90;;;;;;4978249;28;20053;-87
2022/01/02 03:09:38;;;;;;;85.72;35.22;;;6.20;99.90;;;;;;4978526;28;20079;-88
2022/01/02 03:12:11;;;;;;;79.57;34.22;;;6.20;99.90;;;;;;4978019;28;20474;-88
2022/01/02 03:14:39;;;;;;;81.53;35.10;;;6.30;99.90;;;;;;4962351;28;20050;-89
2022/01/02 03:17:05;;;;;;;72.80;31.45;;;6.30;99.90;;;;;;4978196;28;20034;-89
2022/01/02 03:19:33;;;;;;;74.10;30.92;;;6.40;99.90;;;;;;4994819;28;20081;-89
2022/01/02 03:21:59;;;;;;;69.85;31.77;;;6.40;99.90;;;;;;4962883;28;20490;-89
2022/01/02 03:24:26;;;;;;;65.82;29.83;;;6.40;99.90;;;;;;4978343;28;20037;-89
2022/01/02 03:26:52;;;;;;;65.00;30.00;;;6.20;99.90;;;;;;4980520;28;20510;-88
2022/01/02 03:36:53;;;;;;;66.70;29.48;;;5.90;99.90;;;;;;4999132;28;20176;-89
2022/01/02 03:39:20;;;;;;;64.38;30.83;;;5.80;99.90;;;;;;4982083;28;20026;-89
2022/01/02 03:41:46;;;;;;;72.03;30.50;;;5.80;99.90;;;;;;4981852;28;20030;-88
2022/01/02 03:44:12;;;;;;;57.65;27.33;;;5.80;99.90;;;;;;4981785;28;20038;-89
2022/01/02 03:46:38;;;;;;;55.30;26.40;;;5.90;99.90;;;;;;4981775;28;20457;-88
2022/01/02 03:49:05;;;;;;;60.72;27.52;;;5.90;99.90;;;;;;4981632;28;20035;-89
2022/01/02 03:51:31;;;;;;;108.20;45.95;;;6.00;99.90;;;;;;4980867;28;20044;-88
2022/01/02 03:53:57;;;;;;;62.35;28.58;;;6.10;99.90;;;;;;4981357;28;20046;-87
2022/01/02 03:56:25;;;;;;;61.60;26.80;;;6.20;99.90;;;;;;4965889;28;20118;-89
2022/01/02 03:58:50;;;;;;;48.53;24.20;;;6.30;99.90;;;;;;4981511;28;20061;-89
2022/01/02 04:01:17;;;;;;;50.47;23.20;;;6.30;99.90;;;;;;4981668;28;20034;-88
2022/01/02 04:03:42;;;;;;;50.78;23.27;;;6.30;99.90;;;;;;4981627;28;20029;-89
2022/01/02 04:06:08;;;;;;;47.47;22.38;;;6.30;99.90;;;;;;4981282;28;20061;-88
2022/01/02 04:08:34;;;;;;;50.00;22.27;;;6.30;99.90;;;;;;4965381;28;20073;-89
2022/01/02 04:11:00;;;;;;;40.17;20.73;;;6.20;99.90;;;;;;4980660;28;20026;-88
2022/01/02 04:13:26;;;;;;;40.75;21.05;;;6.40;99.90;;;;;;4980809;28;20034;-89
2022/01/02 04:15:52;;;;;;;40.35;19.67;;;6.30;99.90;;;;;;4981319;28;20037;-88
2022/01/02 04:18:18;;;;;;;37.03;18.40;;;6.30;99.90;;;;;;4981013;28;20026;-89
2022/01/02 04:20:44;;;;;;;34.58;17.38;;;6.40;99.90;;;;;;4981113;28;20039;-88
2022/01/02 04:23:10;;;;;;;31.27;16.52;;;6.40;99.90;;;;;;4981032;28;20069;-88
2022/01/02 04:25:36;;;;;;;35.25;16.33;;;6.40;99.90;;;;;;4980986;28;20780;-88
2022/01/02 04:28:01;;;;;;;37.20;17.58;;;6.30;99.90;;;;;;4980537;28;20029;-88
2022/01/02 04:30:27;;;;;;;30.70;16.23;;;6.20;99.90;;;;;;4980841;28;20485;-90
2022/01/02 04:32:54;;;;;;;35.22;17.48;;;6.20;99.90;;;;;;4980628;28;20026;-88
2022/01/02 04:35:20;;;;;;;34.13;16.52;;;6.10;99.90;;;;;;4980986;28;20049;-88
2022/01/02 04:37:47;;;;;;;44.80;19.70;;;6.10;99.90;;;;;;4980887;28;20038;-88
2022/01/02 04:40:13;;;;;;;34.85;18.67;;;6.10;99.90;;;;;;4980850;28;20026;-88
2022/01/02 04:42:39;;;;;;;32.60;16.45;;;6.00;99.90;;;;;;4980506;28;20026;-87
2022/01/02 04:45:07;;;;;;;40.70;18.35;;;6.00;99.90;;;;;;4980383;28;20058;-87
2022/01/02 04:47:32;;;;;;;37.22;17.60;;;6.00;99.90;;;;;;4996710;28;20050;-87
2022/01/02 04:50:05;;;;;;;35.17;17.38;;;6.00;99.90;;;;;;4996819;28;20567;-89
2022/01/02 04:52:41;;;;;;;37.35;18.38;;;5.90;99.90;;;;;;4964401;28;20128;-88
2022/01/02 04:55:09;;;;;;;37.90;17.60;;;5.90;99.90;;;;;;4964545;28;20085;-88
2022/01/02 04:57:35;;;;;;;42.88;17.60;;;5.90;99.90;;;;;;4997189;28;20057;-87
2022/01/02 05:00:01;;;;;;;42.83;21.83;;;5.90;99.90;;;;;;4980440;28;20026;-88
2022/01/02 05:02:28;;;;;;;29.33;15.85;;;6.10;99.90;;;;;;4996797;28;20018;-88
2022/01/02 05:04:54;;;;;;;33.10;16.13;;;6.20;99.90;;;;;;4980375;28;20089;-88
2022/01/02 05:07:20;;;;;;;32.58;15.63;;;6.20;99.90;;;;;;4979833;28;20042;-89
2022/01/02 05:09:46;;;;;;;32.65;16.17;;;6.20;99.90;;;;;;4980020;28;20128;-88
2022/01/02 05:12:12;;;;;;;32.08;15.65;;;6.20;99.90;;;;;;4980078;28;20027;-88
2022/01/02 05:14:38;;;;;;;28.00;14.27;;;6.10;99.90;;;;;;4980097;28;20030;-88
2022/01/02 05:17:04;;;;;;;30.83;14.90;;;6.10;99.90;;;;;;4980150;28;20030;-88
2022/01/02 05:19:30;;;;;;;31.38;14.40;;;6.10;99.90;;;;;;4980384;28;20026;-89
2022/01/02 05:21:55;;;;;;;31.38;15.48;;;6.10;99.90;;;;;;4996192;28;20034;-88
2022/01/02 05:24:21;;;;;;;29.98;16.35;;;6.00;99.90;;;;;;4979782;28;20038;-88
2022/01/02 05:26:47;;;;;;;30.80;14.93;;;6.10;99.90;;;;;;4979835;28;20034;-87
2022/01/02 05:29:13;;;;;;;28.30;15.27;;;6.00;99.90;;;;;;4979779;28;20030;-88
2022/01/02 05:31:40;;;;;;;27.85;14.93;;;6.00;99.90;;;;;;4979277;28;20030;-87
2022/01/02 05:34:06;;;;;;;25.33;14.68;;;5.90;99.90;;;;;;4979356;28;20675;-88
2022/01/02 05:36:31;;;;;;;28.08;14.27;;;5.90;99.90;;;;;;4979514;28;20490;-88
2022/01/02 05:38:57;;;;;;;26.10;13.77;;;5.80;99.90;;;;;;4979438;28;20030;-88
2022/01/02 05:41:55;;;;;;;27.08;13.50;;;5.80;99.90;;;;;;4979547;28;20037;-89
2022/01/02 05:44:23;;;;;;;23.73;13.13;;;5.80;99.90;;;;;;4963830;28;20041;-89
2022/01/02 05:46:49;;;;;;;24.95;13.30;;;5.70;99.90;;;;;;4979529;28;20034;-88
2022/01/02 05:49:16;;;;;;;23.98;12.10;;;5.70;99.90;;;;;;4978445;28;20034;-89
2022/01/02 05:51:43;;;;;;;29.52;14.18;;;5.70;99.90;;;;;;4978920;28;20061;-88
2022/01/02 05:54:11;;;;;;;25.98;13.38;;;5.80;99.90;;;;;;4979021;28;20041;-89
2022/01/02 05:56:37;;;;;;;34.00;13.85;;;5.70;99.90;;;;;;4978696;28;20023;-88
2022/01/02 05:59:04;;;;;;;22.42;12.10;;;5.70;99.90;;;;;;4978419;28;20027;-88
2022/01/02 06:01:30;;;;;;;23.85;12.00;;;5.60;99.90;;;;;;4962569;28;20030;-89
2022/01/02 06:03:57;;;;;;;21.75;11.82;;;5.60;99.90;;;;;;4978354;28;20034;-88
2022/01/02 06:06:24;;;;;;;30.85;11.27;;;5.80;99.90;;;;;;4961766;28;20508;-88
2022/01/02 06:08:49;;;;;;;24.52;13.27;;;5.90;99.90;;;;;;4993852;28;20034;-88
2022/01/02 06:11:15;;;;;;;26.95;11.95;;;6.00;99.90;;;;;;4978528;28;20129;-88
2022/01/02 06:13:43;;;;;;;23.75;11.73;;;6.10;99.90;;;;;;4978633;28;20227;-88
2022/01/02 06:16:13;;;;;;;21.40;11.05;;;6.20;99.90;;;;;;4978258;28;20027;-88
2022/01/02 06:18:40;;;;;;;20.83;10.57;;;6.30;99.90;;;;;;4977624;28;20033;-88
2022/01/02 06:21:06;;;;;;;16.80;9.52;;;6.50;99.90;;;;;;4977692;28;20394;-88
2022/01/02 06:23:32;;;;;;;20.33;9.07;;;6.70;99.90;;;;;;4961533;28;20030;-88
2022/01/02 06:25:58;;;;;;;17.52;8.45;;;6.90;99.90;;;;;;4962368;28;20664;-88
2022/01/02 06:28:24;;;;;;;14.00;7.60;;;6.90;99.90;;;;;;4994546;28;20038;-87
2022/01/02 06:30:52;;;;;;;14.65;7.63;;;7.00;99.90;;;;;;4961776;28;20494;-89
2022/01/02 06:33:18;;;;;;;16.63;8.15;;;7.00;99.90;;;;;;4962179;28;20037;-88
2022/01/02 06:35:44;;;;;;;15.57;8.63;;;7.00;99.90;;;;;;4993812;28;20497;-87
2022/01/02 06:38:16;;;;;;;14.18;7.88;;;6.80;99.90;;;;;;4961945;28;20498;-88
2022/01/02 06:40:44;;;;;;;14.77;7.25;;;6.90;99.90;;;;;;4962194;28;20548;-89
2022/01/02 06:43:13;;;;;;;12.82;7.70;;;7.00;99.90;;;;;;5010566;28;20026;-88
2022/01/02 06:45:40;;;;;;;15.77;7.88;;;7.00;99.90;;;;;;4961930;28;20026;-88
2022/01/02 06:48:06;;;;;;;13.25;7.38;;;7.00;99.90;;;;;;4961694;28;20038;-88
2022/01/02 06:50:33;;;;;;;13.95;7.22;;;7.10;99.90;;;;;;4961320;28;20377;-89
2022/01/02 06:53:00;;;;;;;12.73;5.97;;;7.20;99.90;;;;;;4961597;28;20030;-86
2022/01/02 06:55:26;;;;;;;15.02;7.05;;;7.30;99.90;;;;;;4921346;28;1173149;-88
2022/01/02 06:57:52;;;;;;;12.63;5.78;;;7.30;99.90;;;;;;4978599;28;20061;-87
2022/01/02 07:00:18;;;;;;;9.55;5.72;;;7.40;99.90;;;;;;4978063;28;20046;-89
2022/01/02 07:02:45;;;;;;;9.27;4.93;;;7.40;99.90;;;;;;4961758;28;20038;-88
2022/01/02 07:05:11;;;;;;;10.70;5.18;;;7.40;99.90;;;;;;4961855;28;20019;-88
2022/01/02 07:07:42;;;;;;;12.88;5.30;;;7.40;99.90;;;;;;4994746;28;20034;-88
2022/01/02 07:10:10;;;;;;;270.08;110.43;;;7.50;99.90;;;;;;4994870;28;20027;-88
2022/01/02 07:12:37;;;;;;;8.70;5.10;;;7.50;99.90;;;;;;4977217;28;20041;-87
2022/01/02 07:15:08;;;;;;;7.10;4.43;;;7.50;99.90;;;;;;4961949;28;20037;-88
2022/01/02 07:17:35;;;;;;;6.95;4.18;;;7.70;99.90;;;;;;4977874;28;20031;-87
2022/01/02 07:20:01;;;;;;;5.78;3.70;;;7.70;99.90;;;;;;4962030;28;20129;-87
2022/01/02 07:22:26;;;;;;;6.22;3.72;;;7.80;99.90;;;;;;4961673;28;20030;-87
2022/01/02 07:24:52;;;;;;;8.40;4.18;;;7.80;99.90;;;;;;4994431;28;20038;-87
2022/01/02 07:27:19;;;;;;;10.10;4.22;;;7.90;99.90;;;;;;4960553;28;20553;-87
2022/01/02 07:29:46;;;;;;;8.70;3.67;;;7.80;99.90;;;;;;4994237;28;20033;-88
2022/01/02 07:32:12;;;;;;;4.95;3.60;;;7.80;99.90;;;;;;4994154;28;20490;-86
2022/01/02 07:34:38;;;;;;;6.55;3.28;;;7.80;99.90;;;;;;4993541;28;20030;-86
2022/01/02 07:37:05;;;;;;;9.27;4.57;;;7.90;99.90;;;;;;5009790;28;20057;-87
2022/01/02 07:39:31;;;;;;;7.43;4.18;;;8.00;99.90;;;;;;4962955;28;20084;-85
2022/01/02 07:45:44;;;;;;;5.57;3.35;;;8.10;99.90;;;;;;4995202;28;20529;-86
2022/01/02 07:48:10;;;;;;;7.43;3.25;;;8.10;99.90;;;;;;4994830;28;20039;-85
2022/01/02 07:50:36;;;;;;;7.13;3.00;;;8.20;99.90;;;;;;4962649;28;20068;-85
2022/01/02 07:53:02;;;;;;;9.13;3.30;;;8.20;99.90;;;;;;4993226;28;20170;-87
2022/01/02 07:55:27;;;;;;;7.35;3.60;;;8.30;99.90;;;;;;4960973;28;20066;-87
2022/01/02 07:57:53;;;;;;;6.78;3.80;;;8.20;99.90;;;;;;5009703;28;20588;-87
2022/01/02 08:00:21;;;;;;;6.85;3.70;;;8.10;99.90;;;;;;4960695;28;20034;-87
2022/01/02 08:02:49;;;;;;;6.20;3.70;;;8.10;99.90;;;;;;4960935;28;20030;-86
2022/01/02 08:05:15;;;;;;;7.30;3.60;;;8.10;99.90;;;;;;4960781;28;20014;-87
2022/01/02 08:07:41;;;;;;;6.55;3.67;;;8.00;99.90;;;;;;4976793;28;20393;-86
2022/01/02 08:10:08;;;;;;;9.18;3.75;;;8.00;99.90;;;;;;4993096;28;20062;-87
2022/01/02 08:12:33;;;;;;;7.53;3.20;;;7.90;99.90;;;;;;4961740;28;20085;-85
2022/01/02 08:15:00;;;;;;;6.85;3.63;;;8.00;99.90;;;;;;4996393;28;20486;-86
2022/01/02 08:17:27;;;;;;;551.10;219.50;;;8.10;99.90;;;;;;4963854;28;20030;-85
2022/01/02 08:19:53;;;;;;;10.68;4.65;;;8.30;99.90;;;;;;4964272;28;20375;-87
2022/01/02 08:22:20;;;;;;;11.98;3.92;;;8.50;99.90;;;;;;4964401;28;20034;-86
2022/01/02 08:24:45;;;;;;;6.57;3.97;;;8.50;99.90;;;;;;4966098;28;20061;-87
2022/01/02 08:27:38;;;;;;;8.95;3.90;;;8.50;99.90;;;;;;4980173;28;20030;-86
2022/01/02 08:30:08;;;;;;;10.73;4.10;;;8.50;99.90;;;;;;4996775;28;20117;-87
2022/01/02 08:32:34;;;;;;;6.25;3.88;;;8.50;99.90;;;;;;4965312;28;20045;-79
2022/01/02 08:35:00;;;;;;;7.15;3.70;;;8.60;99.90;;;;;;4996135;28;20022;-84
2022/01/02 08:37:26;;;;;;;6.68;3.97;;;8.60;99.90;;;;;;4996892;28;20042;-87
2022/01/02 08:39:51;;;;;;;7.32;3.88;;;8.70;99.90;;;;;;4996691;28;20022;-88
2022/01/02 08:42:32;;;;;;;6.05;4.13;;;8.70;99.90;;;;;;4963967;28;20100;-87
2022/01/02 08:44:58;;;;;;;6.95;4.25;;;8.70;99.90;;;;;;4964101;28;20121;-88
2022/01/02 08:47:24;;;;;;;11.18;4.55;;;8.70;99.90;;;;;;4980328;28;20076;-87
2022/01/02 08:49:49;;;;;;;6.93;4.32;;;8.70;99.90;;;;;;4963935;28;20375;-87
2022/01/02 08:52:15;;;;;;;8.68;4.85;;;8.70;99.90;;;;;;4963970;28;20038;-88
2022/01/02 08:54:40;;;;;;;9.25;4.07;;;8.60;99.90;;;;;;4963940;28;20026;-88
2022/01/02 08:57:06;;;;;;;11.90;7.30;;;8.60;99.90;;;;;;4963788;28;20049;-87
2022/01/02 08:59:32;;;;;;;10.35;5.70;;;8.60;99.90;;;;;;4963731;28;20041;-87
2022/01/02 09:01:58;;;;;;;10.05;5.10;;;8.60;99.90;;;;;;4979734;28;20101;-88
2022/01/02 09:04:23;;;;;;;10.85;6.28;;;8.50;99.90;;;;;;4963412;28;20125;-88
2022/01/02 09:06:49;;;;;;;10.80;7.07;;;8.50;99.90;;;;;;4963360;28;20048;-88
2022/01/02 09:09:15;;;;;;;16.02;5.93;;;8.50;99.90;;;;;;4980190;28;20114;-88
2022/01/02 09:11:41;;;;;;;10.90;5.72;;;8.50;99.90;;;;;;4979751;28;20040;-88
2022/01/02 09:14:06;;;;;;;8.13;4.93;;;8.50;99.90;;;;;;4996141;28;20038;-87
2022/01/02 09:16:34;;;;;;;22.73;5.18;;;8.50;99.90;;;;;;4963970;28;20034;-88
2022/01/02 09:18:59;;;;;;;10.25;5.90;;;8.40;99.90;;;;;;4981886;28;20505;-88
2022/01/02 09:21:25;;;;;;;12.10;5.13;;;8.40;99.90;;;;;;4964776;28;20026;-88
2022/01/02 09:23:51;;;;;;;9.85;6.47;;;8.50;99.90;;;;;;5012851;28;20034;-88
2022/01/02 09:26:17;;;;;;;8.20;5.07;;;8.50;99.90;;;;;;4963345;28;20041;-87
2022/01/02 09:28:43;;;;;;;37.50;17.05;;;8.50;99.90;;;;;;4962076;28;20475;-86
2022/01/02 09:31:08;;;;;;;48.30;19.50;;;8.50;99.90;;;;;;4978585;28;20038;-86
2022/01/02 09:33:34;;;;;;;13.25;6.07;;;8.50;99.90;;;;;;4962402;28;20026;-87
2022/01/02 09:36:00;;;;;;;12.18;6.30;;;8.50;99.90;;;;;;4995279;28;20229;-87
2022/01/02 09:38:25;;;;;;;14.55;5.75;;;8.50;99.90;;;;;;4963082;28;20030;-86
2022/01/02 09:40:52;;;;;;;9.35;5.70;;;8.50;99.90;;;;;;4979244;28;20030;-86
2022/01/02 09:43:18;;;;;;;9.20;4.88;;;8.50;99.90;;;;;;4995745;28;20064;-85
2022/01/02 09:45:45;;;;;;;8.85;5.35;;;8.60;99.90;;;;;;4962440;28;20027;-86
2022/01/02 09:48:11;;;;;;;9.35;5.60;;;8.60;99.90;;;;;;4962353;28;20034;-86
2022/01/02 09:50:39;;;;;;;12.65;6.53;;;8.60;99.90;;;;;;4962466;28;20030;-86
2022/01/02 09:53:05;;;;;;;9.05;5.90;;;8.70;99.90;;;;;;4962138;28;20038;-87
2022/01/02 09:55:32;;;;;;;9.82;4.80;;;8.60;99.90;;;;;;4977960;28;20522;-87
2022/01/02 09:58:03;;;;;;;9.77;5.53;;;8.70;99.90;;;;;;4978047;28;20486;-87
2022/01/02 10:00:29;;;;;;;8.20;5.65;;;8.70;99.90;;;;;;4961799;28;20072;-86
2022/01/02 10:03:03;;;;;;;11.75;6.63;;;8.70;99.90;;;;;;4978163;28;20425;-86
2022/01/02 10:05:47;;;;;;;9.98;5.10;;;8.70;99.90;;;;;;4978513;28;20470;-86
2022/01/02 10:08:23;;;;;;;10.07;5.63;;;8.80;99.90;;;;;;4978189;28;20034;-87
2022/01/02 10:11:06;;;;;;;14.18;7.07;;;8.90;99.90;;;;;;4977163;28;20066;-86
2022/01/02 10:14:01;;;;;;;7.00;4.40;;;8.90;99.90;;;;;;4961201;28;20030;-87
2022/01/02 10:16:41;;;;;;;8.25;4.10;;;8.90;99.90;;;;;;4972177;28;20509;-86
2022/01/02 10:19:29;;;;;;;12.13;4.40;;;9.00;99.90;;;;;;5010292;28;20408;-85
2022/01/02 10:22:00;;;;;;;7.13;4.32;;;8.90;99.90;;;;;;4961727;28;20434;-87
2022/01/02 10:24:28;;;;;;;8.45;4.50;;;8.90;99.90;;;;;;4961194;28;20050;-87
2022/01/02 10:27:03;;;;;;;6.93;4.75;;;8.80;99.90;;;;;;4961381;28;20038;-87
2022/01/02 10:29:43;;;;;;;10.82;5.63;;;8.80;99.90;;;;;;4977361;28;20077;-87
2022/01/02 10:32:36;;;;;;;29.17;12.73;;;8.80;99.90;;;;;;5009641;28;20038;-85
2022/01/02 10:35:21;;;;;;;9.23;5.22;;;8.80;99.90;;;;;;4995370;28;20455;-86
2022/01/02 10:38:00;;;;;;;9.18;5.38;;;8.80;99.90;;;;;;4977569;28;20490;-86
2022/01/02 10:40:38;;;;;;;13.18;6.18;;;8.80;99.90;;;;;;4982006;28;20034;-87
2022/01/02 10:43:32;;;;;;;7.60;5.15;;;8.80;99.90;;;;;;4962556;28;20034;-86
2022/01/02 10:46:07;;;;;;;10.40;5.15;;;8.70;99.90;;;;;;4959405;28;20137;-87
2022/01/02 10:48:39;;;;;;;9.77;4.90;;;8.70;99.90;;;;;;4961473;28;20061;-87
2022/01/02 10:51:14;;;;;;;9.25;4.80;;;8.80;99.90;;;;;;4977558;28;20026;-85
2022/01/02 10:53:55;;;;;;;7.38;4.13;;;8.90;99.90;;;;;;5009881;28;20569;-87
2022/01/02 10:56:22;;;;;;;7.43;4.82;;;8.90;99.90;;;;;;4977855;28;20124;-85
2022/01/02 10:58:48;;;;;;;16.55;7.10;;;8.90;99.90;;;;;;4961235;28;20390;-86
2022/01/02 11:01:15;;;;;;;9.90;5.85;;;8.90;99.90;;;;;;4961191;28;20482;-87
2022/01/02 11:03:44;;;;;;;11.13;5.75;;;8.90;99.90;;;;;;4977233;28;20490;-86
2022/01/02 11:06:13;;;;;;;8.18;4.43;;;8.90;99.90;;;;;;5012075;28;20034;-87
2022/01/02 11:08:49;;;;;;;7.97;4.70;;;8.90;99.90;;;;;;4977394;28;20038;-88
2022/01/02 11:11:18;;;;;;;7.75;4.18;;;9.00;99.90;;;;;;4962490;28;20038;-87
2022/01/02 11:13:44;;;;;;;9.52;4.00;;;9.00;99.90;;;;;;5014074;28;20486;-87
2022/01/02 11:16:10;;;;;;;8.95;4.55;;;9.10;99.90;;;;;;4963401;28;20033;-87
2022/01/02 11:18:36;;;;;;;7.07;4.15;;;9.10;99.90;;;;;;4964589;28;20398;-86
2022/01/02 11:21:08;;;;;;;8.93;4.60;;;9.10;99.90;;;;;;4994740;28;20187;-87
2022/01/02 11:24:03;;;;;;;5.80;4.00;;;9.10;99.90;;;;;;4994354;28;20073;-87
2022/01/02 11:26:34;;;;;;;5.28;3.80;;;9.10;99.90;;;;;;4973084;28;20101;-85
2022/01/02 11:29:00;;;;;;;6.88;3.75;;;9.10;99.90;;;;;;4978293;28;20065;-87
2022/01/02 11:31:38;;;;;;;6.47;3.90;;;9.20;99.90;;;;;;4977936;28;20034;-88
2022/01/02 11:34:27;;;;;;;8.30;3.53;;;9.20;99.90;;;;;;4978432;28;20121;-87
2022/01/02 11:37:13;;;;;;;8.93;4.80;;;9.20;99.90;;;;;;4952854;28;20039;-86
2022/01/02 11:39:52;;;;;;;7.78;5.20;;;9.00;99.90;;;;;;5010632;28;20110;-88
2022/01/02 11:42:41;;;;;;;10.15;5.45;;;9.00;99.90;;;;;;4978655;28;20023;-87
2022/01/02 11:45:23;;;;;;;9.20;5.43;;;9.00;99.90;;;;;;4977632;28;20034;-88
2022/01/02 11:47:48;;;;;;;10.48;5.65;;;8.90;99.90;;;;;;4981072;28;20045;-86
2022/01/02 11:50:30;;;;;;;7.10;4.38;;;8.90;99.90;;;;;;4965977;28;20129;-87
2022/01/02 11:53:16;;;;;;;7.65;4.90;;;9.00;99.90;;;;;;4982757;28;20038;-85
2022/01/02 11:55:43;;;;;;;7.93;5.18;;;9.10;99.90;;;;;;5016272;28;20153;-86
2022/01/02 11:58:09;;;;;;;6.38;4.53;;;9.10;99.90;;;;;;4965901;28;20060;-86
2022/01/02 12:00:37;;;;;;;7.05;4.35;;;9.20;99.90;;;;;;4965835;28;20120;-86
2022/01/02 12:03:03;;;;;;;7.53;5.03;;;9.20;99.90;;;;;;4982066;28;20037;-86
2022/01/02 12:05:29;;;;;;;9.88;5.32;;;9.40;99.90;;;;;;4966150;28;20116;-86
2022/01/02 12:07:55;;;;;;;8.40;5.03;;;9.50;99.90;;;;;;4966303;28;20026;-83
2022/01/02 12:10:24;;;;;;;7.53;5.18;;;9.50;99.90;;;;;;4981695;28;20026;-86
2022/01/02 12:12:59;;;;;;;9.43;5.13;;;9.50;99.90;;;;;;4965860;28;20037;-85
2022/01/02 12:15:24;;;;;;;12.25;7.03;;;9.50;99.90;;;;;;4998314;28;20031;-87
2022/01/02 12:18:12;;;;;;;13.38;7.50;;;9.40;99.90;;;;;;4981951;28;20077;-85
2022/01/02 12:20:50;;;;;;;11.02;6.60;;;9.30;99.90;;;;;;4981120;28;20034;-86
2022/01/02 12:23:33;;;;;;;10.45;5.85;;;9.20;99.90;;;;;;5013837;28;20034;-85
2022/01/02 12:26:10;;;;;;;11.23;7.13;;;9.00;99.90;;;;;;4997573;28;20038;-87
2022/01/02 12:28:40;;;;;;;11.13;6.32;;;8.90;99.90;;;;;;4981699;28;20506;-86
2022/01/02 12:31:09;;;;;;;10.48;6.55;;;8.80;99.90;;;;;;5013917;28;20038;-86
2022/01/02 12:33:36;;;;;;;7.63;4.60;;;8.80;99.90;;;;;;4964139;28;20504;-86
2022/01/02 12:36:16;;;;;;;9.18;5.45;;;8.80;99.90;;;;;;4979829;28;20038;-86
2022/01/02 12:39:10;;;;;;;8.35;5.47;;;8.70;99.90;;;;;;4963877;28;20058;-87
2022/01/02 12:41:38;;;;;;;13.50;6.30;;;8.80;99.90;;;;;;4977104;28;20104;-87
2022/01/02 12:44:15;;;;;;;8.73;5.07;;;8.90;99.90;;;;;;4963683;28;20030;-86
2022/01/02 12:46:48;;;;;;;7.93;5.45;;;9.00;99.90;;;;;;4980034;28;20070;-85
2022/01/02 12:49:19;;;;;;;13.77;6.93;;;8.90;99.90;;;;;;4979693;28;20065;-86
2022/01/02 12:52:10;;;;;;;11.38;5.88;;;8.90;99.90;;;;;;4979702;28;20455;-88
2022/01/02 12:54:44;;;;;;;9.57;5.60;;;9.00;99.90;;;;;;4954101;28;20038;-86
2022/01/02 12:57:15;;;;;;;12.00;6.85;;;9.00;99.90;;;;;;4963294;28;20554;-86
2022/01/02 12:59:44;;;;;;;10.63;6.40;;;9.10;99.90;;;;;;4996791;28;20537;-87
2022/01/02 13:02:21;;;;;;;14.38;8.45;;;9.10;99.90;;;;;;4980879;28;20041;-87
2022/01/02 13:04:53;;;;;;;9.13;5.07;;;9.20;99.90;;;;;;4962647;28;20034;-86
2022/01/02 13:07:27;;;;;;;10.70;5.90;;;9.20;99.90;;;;;;4978610;28;20450;-87
2022/01/02 13:09:58;;;;;;;13.50;7.55;;;9.20;99.90;;;;;;4979060;28;20031;-86